createdAt,value
2023-03-04T00:02:14.153Z,3.00
2023-03-04T00:04:40.883Z,3.00
2023-03-04T00:07:07.564Z,3.10
2023-03-04T00:09:34.297Z,3.10
2023-03-04T00:12:01.024Z,3.20
2023-03-04T00:14:30.288Z,3.20
2023-03-04T00:16:57.419Z,3.20
2023-03-04T00:19:24.171Z,3.20
2023-03-04T00:21:50.868Z,3.30
2023-03-04T00:24:17.586Z,3.30
2023-03-04T00:26:44.355Z,3.30
2023-03-04T00:29:10.996Z,3.30
2023-03-04T00:31:37.832Z,3.40
2023-03-04T00:34:04.504Z,3.50
2023-03-04T00:36:31.226Z,3.50
2023-03-04T00:38:57.997Z,3.50
2023-03-04T00:41:24.752Z,3.50
2023-03-04T00:43:51.666Z,3.50
2023-03-04T00:46:18.370Z,3.50
2023-03-04T00:48:45.042Z,3.50
2023-03-04T00:51:11.755Z,3.60
2023-03-04T00:53:38.439Z,3.70
2023-03-04T00:56:05.511Z,3.80
2023-03-04T00:58:32.279Z,3.80
2023-03-04T01:00:58.989Z,3.80
2023-03-04T01:03:26.886Z,3.80
2023-03-04T01:05:53.622Z,3.80
2023-03-04T01:08:20.323Z,3.90
2023-03-04T01:10:48.480Z,3.90
2023-03-04T01:13:15.194Z,4.00
2023-03-04T01:15:41.863Z,4.00
2023-03-04T01:18:08.765Z,4.00
2023-03-04T01:20:35.552Z,4.00
2023-03-04T01:23:02.360Z,4.10
2023-03-04T01:25:29.063Z,4.10
2023-03-04T01:27:56.003Z,4.20
2023-03-04T01:30:22.732Z,4.20
2023-03-04T01:32:49.485Z,4.20
2023-03-04T01:35:16.207Z,4.20
2023-03-04T01:37:42.922Z,4.20
2023-03-04T01:40:10.419Z,4.10
2023-03-04T01:42:37.272Z,4.20
2023-03-04T01:45:06.200Z,4.20
2023-03-04T01:47:34.437Z,4.20
2023-03-04T01:50:03.746Z,4.30
2023-03-04T01:52:30.553Z,4.30
2023-03-04T01:54:57.870Z,4.40
2023-03-04T01:57:26.366Z,4.40
2023-03-04T02:00:24.132Z,4.50
2023-03-04T02:02:55.273Z,4.50
2023-03-04T02:05:22.715Z,4.50
2023-03-04T02:07:51.268Z,4.50
2023-03-04T02:10:18.323Z,4.50
2023-03-04T02:12:45.370Z,4.60
2023-03-04T02:15:12.512Z,4.60
2023-03-04T02:17:39.600Z,4.60
2023-03-04T02:20:35.870Z,4.60
2023-03-04T02:23:35.027Z,4.60
2023-03-04T02:26:09.861Z,4.60
2023-03-04T02:28:36.632Z,4.60
2023-03-04T02:31:03.525Z,4.60
2023-03-04T02:33:30.407Z,4.70
2023-03-04T02:35:57.194Z,4.80
2023-03-04T02:38:23.885Z,4.80
2023-03-04T02:40:54.597Z,4.90
2023-03-04T02:43:21.551Z,4.90
2023-03-04T02:45:50.881Z,4.90
2023-03-04T02:48:20.860Z,4.90
2023-03-04T02:50:50.907Z,4.80
2023-03-04T02:53:18.099Z,4.90
2023-03-04T02:55:44.983Z,4.90
2023-03-04T02:58:12.107Z,4.90
2023-03-04T03:00:39.161Z,4.90
2023-03-04T03:03:06.253Z,5.00
2023-03-04T03:05:34.520Z,5.00
2023-03-04T03:08:01.234Z,5.00
2023-03-04T03:10:28.333Z,5.00
2023-03-04T03:12:55.018Z,5.00
2023-03-04T03:15:22.093Z,5.00
2023-03-04T03:17:49.040Z,5.00
2023-03-04T03:20:17.008Z,5.00
2023-03-04T03:22:43.882Z,5.00
2023-03-04T03:25:12.494Z,5.00
2023-03-04T03:27:39.240Z,5.00
2023-03-04T03:30:07.434Z,5.00
2023-03-04T03:32:34.279Z,4.90
2023-03-04T03:35:01.035Z,5.00
2023-03-04T03:37:27.860Z,5.00
2023-03-04T03:39:54.552Z,5.00
2023-03-04T03:42:21.324Z,5.00
2023-03-04T03:44:48.087Z,5.10
2023-03-04T03:47:14.741Z,5.00
2023-03-04T03:49:41.486Z,5.00
2023-03-04T03:52:09.041Z,5.00
2023-03-04T03:54:36.446Z,5.00
2023-03-04T03:57:03.301Z,5.00
2023-03-04T03:59:30.070Z,5.10
2023-03-04T04:01:56.799Z,5.00
2023-03-04T04:04:23.564Z,5.00
2023-03-04T04:06:50.245Z,5.00
2023-03-04T04:09:17.005Z,5.00
2023-03-04T04:11:43.695Z,5.00
2023-03-04T04:14:13.824Z,5.10
2023-03-04T04:16:40.717Z,5.10
2023-03-04T04:19:07.497Z,5.20
2023-03-04T04:21:34.213Z,5.20
2023-03-04T04:24:00.931Z,5.20
2023-03-04T04:26:27.717Z,5.20
2023-03-04T04:28:54.427Z,5.20
2023-03-04T04:31:21.101Z,5.20
2023-03-04T04:33:47.819Z,5.10
2023-03-04T04:36:16.311Z,5.20
2023-03-04T04:38:43.832Z,5.20
2023-03-04T04:41:22.238Z,5.20
2023-03-04T04:43:49.032Z,5.20
2023-03-04T04:46:16.410Z,5.20
2023-03-04T04:48:43.475Z,5.20
2023-03-04T04:51:10.240Z,5.20
2023-03-04T04:53:37.645Z,5.30
2023-03-04T04:56:16.542Z,5.30
2023-03-04T04:58:44.507Z,5.40
2023-03-04T05:01:11.496Z,5.40
2023-03-04T05:03:38.730Z,5.40
2023-03-04T05:06:07.699Z,5.50
2023-03-04T05:08:34.945Z,5.50
2023-03-04T05:11:02.607Z,5.50
2023-03-04T05:13:29.340Z,5.60
2023-03-04T05:15:57.199Z,5.50
2023-03-04T05:18:25.799Z,5.50
2023-03-04T05:21:00.844Z,5.50
2023-03-04T05:23:31.494Z,5.50
2023-03-04T05:25:58.182Z,5.60
2023-03-04T05:28:25.988Z,5.60
2023-03-04T05:30:52.847Z,5.60
2023-03-04T05:33:20.087Z,5.60
2023-03-04T05:35:48.610Z,5.60
2023-03-04T05:38:17.905Z,5.60
2023-03-04T05:40:45.383Z,5.60
2023-03-04T05:43:12.880Z,5.60
2023-03-04T05:45:39.999Z,5.70
2023-03-04T05:48:07.398Z,5.70
2023-03-04T05:50:34.690Z,5.70
2023-03-04T05:53:01.553Z,5.70
2023-03-04T05:55:29.926Z,5.70
2023-03-04T05:57:57.340Z,5.70
2023-03-04T06:00:24.851Z,5.70
2023-03-04T06:02:51.803Z,5.70
2023-03-04T06:05:18.588Z,5.70
2023-03-04T06:07:45.489Z,5.70
2023-03-04T06:10:15.453Z,5.70
2023-03-04T06:12:42.626Z,5.70
2023-03-04T06:15:10.512Z,5.80
2023-03-04T06:17:41.458Z,5.80
2023-03-04T06:20:10.089Z,5.80
2023-03-04T06:22:36.904Z,5.80
2023-03-04T06:25:04.128Z,5.80
2023-03-04T06:27:30.975Z,5.80
2023-03-04T06:29:57.772Z,5.80
2023-03-04T06:32:24.891Z,5.80
2023-03-04T06:34:51.601Z,5.80
2023-03-04T06:37:18.378Z,5.80
2023-03-04T06:39:45.933Z,5.80
2023-03-04T06:42:13.221Z,5.80
2023-03-04T06:44:40.239Z,5.80
2023-03-04T06:47:07.412Z,5.90
2023-03-04T06:49:34.330Z,5.90
2023-03-04T06:52:01.064Z,5.90
2023-03-04T06:54:27.782Z,5.90
2023-03-04T06:56:54.539Z,5.90
2023-03-04T06:59:22.073Z,5.80
2023-03-04T07:01:48.755Z,5.80
2023-03-04T07:04:15.630Z,5.80
2023-03-04T07:06:42.345Z,5.80
2023-03-04T07:09:09.190Z,5.80
2023-03-04T07:11:35.946Z,5.90
2023-03-04T07:14:02.667Z,5.90
2023-03-04T07:16:29.508Z,5.90
2023-03-04T07:18:56.404Z,5.90
2023-03-04T07:21:23.116Z,6.00
2023-03-04T07:23:49.862Z,6.00
2023-03-04T07:26:17.574Z,6.00
2023-03-04T07:28:44.314Z,6.00
2023-03-04T07:31:19.441Z,6.10
2023-03-04T07:33:46.279Z,6.20
2023-03-04T07:36:14.875Z,6.30
2023-03-04T07:38:49.530Z,6.30
2023-03-04T07:41:16.933Z,6.30
2023-03-04T07:43:44.319Z,6.20
2023-03-04T07:46:11.498Z,6.10
2023-03-04T07:48:38.447Z,6.20
2023-03-04T07:51:08.047Z,6.20
2023-03-04T07:53:35.774Z,6.20
2023-03-04T07:56:03.718Z,6.40
2023-03-04T07:58:30.770Z,6.30
2023-03-04T08:00:57.792Z,6.30
2023-03-04T08:03:25.246Z,6.30
2023-03-04T08:05:52.591Z,6.30
2023-03-04T08:08:19.463Z,6.40
2023-03-04T08:10:46.182Z,6.30
2023-03-04T08:13:12.999Z,6.40
2023-03-04T08:15:40.836Z,6.40
2023-03-04T08:18:07.533Z,6.40
2023-03-04T08:20:34.519Z,6.50
2023-03-04T08:23:01.240Z,6.40
2023-03-04T08:25:27.928Z,6.40
2023-03-04T08:27:54.617Z,6.50
2023-03-04T08:30:21.474Z,6.60
2023-03-04T08:32:48.282Z,6.60
2023-03-04T08:35:15.078Z,6.70
2023-03-04T08:37:41.774Z,6.70
2023-03-04T08:40:09.271Z,6.70
2023-03-04T08:42:35.964Z,6.80
2023-03-04T08:45:02.764Z,6.90
2023-03-04T08:47:29.470Z,7.00
2023-03-04T08:49:56.184Z,7.10
2023-03-04T08:52:22.831Z,7.20
2023-03-04T08:54:49.548Z,7.20
2023-03-04T08:57:16.234Z,7.20
2023-03-04T08:59:42.927Z,7.30
2023-03-04T09:02:10.148Z,7.40
2023-03-04T09:04:37.556Z,7.40
2023-03-04T09:07:04.380Z,7.40
2023-03-04T09:09:31.249Z,7.40
2023-03-04T09:11:58.008Z,7.50
2023-03-04T09:14:24.952Z,7.50
2023-03-04T09:16:51.718Z,7.60
2023-03-04T09:19:18.487Z,7.60
2023-03-04T09:21:45.315Z,7.60
2023-03-04T09:24:12.132Z,7.60
2023-03-04T09:26:38.833Z,7.60
2023-03-04T09:29:06.526Z,7.60
2023-03-04T09:31:33.268Z,7.60
2023-03-04T09:34:00.720Z,7.80
2023-03-04T09:36:27.542Z,7.90
2023-03-04T09:38:54.366Z,7.90
2023-03-04T09:41:36.757Z,7.80
2023-03-04T09:44:22.385Z,7.90
2023-03-04T09:46:50.878Z,7.80
2023-03-04T09:49:20.757Z,7.90
2023-03-04T09:51:56.934Z,7.90
2023-03-04T09:54:52.141Z,8.00
2023-03-04T09:57:39.766Z,8.00
2023-03-04T10:00:12.982Z,8.00
2023-03-04T10:03:06.958Z,8.00
2023-03-04T10:05:39.501Z,8.10
2023-03-04T10:08:27.480Z,8.20
2023-03-04T10:10:56.867Z,8.20
2023-03-04T10:13:40.336Z,8.20
2023-03-04T10:16:12.510Z,8.30
2023-03-04T10:18:47.225Z,8.20
2023-03-04T10:21:21.171Z,8.30
2023-03-04T10:23:49.137Z,8.30
2023-03-04T10:26:20.841Z,8.40
2023-03-04T10:28:48.080Z,8.60
2023-03-04T10:31:30.159Z,8.80
2023-03-04T10:33:56.881Z,8.90
2023-03-04T10:36:29.623Z,8.80
2023-03-04T10:39:02.815Z,8.80
2023-03-04T10:41:31.600Z,8.80
2023-03-04T10:44:13.095Z,8.70
2023-03-04T10:46:40.656Z,8.60
2023-03-04T10:49:07.850Z,8.60
2023-03-04T10:51:43.964Z,8.60
2023-03-04T10:54:39.477Z,8.40
2023-03-04T10:57:20.994Z,8.20
2023-03-04T11:00:17.869Z,8.20
2023-03-04T11:02:45.033Z,8.20
2023-03-04T11:05:21.442Z,8.30
2023-03-04T11:07:57.473Z,8.60
2023-03-04T11:10:40.383Z,9.10
2023-03-04T11:13:12.664Z,9.30
2023-03-04T11:16:00.462Z,9.40
2023-03-04T11:18:48.014Z,9.40
2023-03-04T11:21:24.158Z,9.30
2023-03-04T11:23:58.762Z,9.80
2023-03-04T11:26:40.896Z,10.00
2023-03-04T11:29:28.357Z,10.10
2023-03-04T11:32:00.687Z,9.80
2023-03-04T11:34:27.381Z,9.60
2023-03-04T11:37:26.094Z,9.40
2023-03-04T11:40:04.047Z,9.30
2023-03-04T11:42:46.700Z,9.10
2023-03-04T11:45:29.216Z,8.90
2023-03-04T11:48:39.386Z,8.70
2023-03-04T11:51:36.319Z,8.60
2023-03-04T11:54:14.090Z,8.30
2023-03-04T11:56:53.630Z,8.30
2023-03-04T11:59:42.196Z,8.20
2023-03-04T12:02:22.729Z,8.30
2023-03-04T12:04:58.950Z,8.20
2023-03-04T12:07:38.600Z,8.10
2023-03-04T12:10:32.974Z,8.10
2023-03-04T12:13:12.277Z,8.20
2023-03-04T12:15:51.450Z,8.20
2023-03-04T12:18:30.205Z,8.20
2023-03-04T12:21:34.632Z,8.30
2023-03-04T12:24:07.462Z,8.40
2023-03-04T12:26:49.879Z,8.30
2023-03-04T12:29:41.160Z,8.40
2023-03-04T12:32:31.319Z,8.40
2023-03-04T12:35:08.676Z,8.30
2023-03-04T12:38:01.190Z,8.30
2023-03-04T12:40:41.405Z,8.50
2023-03-04T12:43:54.955Z,8.50
2023-03-04T12:46:36.068Z,8.60
2023-03-04T12:49:39.646Z,8.70
2023-03-04T12:52:27.080Z,8.60
2023-03-04T12:54:58.861Z,8.40
2023-03-04T12:57:31.509Z,8.40
2023-03-04T13:00:01.288Z,8.60
2023-03-04T13:02:33.935Z,8.60
2023-03-04T13:05:19.675Z,8.60
2023-03-04T13:08:17.284Z,8.60
2023-03-04T13:10:43.972Z,8.60
2023-03-04T13:14:07.987Z,8.60
2023-03-04T13:16:49.242Z,8.50
2023-03-04T13:19:43.432Z,8.50
2023-03-04T13:22:37.218Z,8.40
2023-03-04T13:25:28.883Z,8.40
2023-03-04T13:28:13.816Z,8.30
2023-03-04T13:30:42.106Z,8.40
2023-03-04T13:33:08.777Z,8.30
2023-03-04T13:36:04.240Z,8.40
2023-03-04T13:38:31.124Z,8.30
2023-03-04T13:41:31.373Z,8.30
2023-03-04T13:44:04.013Z,8.30
2023-03-04T13:46:43.390Z,8.30
2023-03-04T13:49:24.505Z,8.30
2023-03-04T13:51:51.633Z,8.30
2023-03-04T13:54:34.196Z,8.30
2023-03-04T13:57:01.032Z,8.20
2023-03-04T13:59:42.936Z,8.20
2023-03-04T14:02:22.580Z,8.20
2023-03-04T14:04:59.733Z,8.20
2023-03-04T14:07:30.505Z,8.10
2023-03-04T14:10:26.704Z,8.10
2023-03-04T14:12:57.238Z,8.10
2023-03-04T14:15:28.975Z,8.10
2023-03-04T14:17:58.251Z,8.00
2023-03-04T14:20:34.886Z,8.00
2023-03-04T14:23:04.296Z,8.00
2023-03-04T14:25:32.092Z,7.90
2023-03-04T14:28:14.491Z,7.90
2023-03-04T14:30:44.279Z,7.70
2023-03-04T14:33:17.714Z,7.70
2023-03-04T14:36:01.424Z,7.70
2023-03-04T14:38:32.119Z,7.70
2023-03-04T14:41:24.309Z,7.70
2023-03-04T14:43:53.815Z,7.60
2023-03-04T14:46:22.915Z,7.60
2023-03-04T14:48:52.498Z,7.50
2023-03-04T14:51:41.460Z,7.50
2023-03-04T14:54:29.476Z,7.50
2023-03-04T14:56:56.534Z,7.50
2023-03-04T14:59:30.734Z,7.40
2023-03-04T15:02:31.612Z,7.40
2023-03-04T15:05:16.552Z,7.30
2023-03-04T15:07:49.807Z,7.30
2023-03-04T15:10:25.506Z,7.30
2023-03-04T15:12:54.895Z,7.30
2023-03-04T15:15:33.424Z,7.30
2023-03-04T15:18:14.517Z,7.30
2023-03-04T15:20:41.593Z,7.30
2023-03-04T15:23:09.892Z,7.30
2023-03-04T15:25:36.672Z,7.50
2023-03-04T15:28:04.364Z,7.40
2023-03-04T15:30:34.490Z,7.40
2023-03-04T15:33:01.432Z,7.50
2023-03-04T15:35:30.735Z,7.50
2023-03-04T15:37:58.191Z,7.40
2023-03-04T15:40:35.758Z,7.40
2023-03-04T15:43:05.224Z,7.30
2023-03-04T15:45:37.511Z,7.20
2023-03-04T15:48:08.012Z,7.20
2023-03-04T15:50:40.744Z,7.30
2023-03-04T15:53:13.964Z,7.40
2023-03-04T15:55:41.708Z,7.50
2023-03-04T15:58:10.801Z,7.60
2023-03-04T16:00:37.517Z,7.70
2023-03-04T16:03:04.477Z,7.80
2023-03-04T16:05:35.829Z,7.70
2023-03-04T16:08:02.616Z,7.60
2023-03-04T16:10:33.074Z,7.50
2023-03-04T16:13:00.111Z,7.40
2023-03-04T16:15:29.429Z,7.30
2023-03-04T16:17:57.626Z,7.30
2023-03-04T16:20:28.798Z,7.30
2023-03-04T16:22:59.387Z,7.20
2023-03-04T16:25:27.174Z,7.20
2023-03-04T16:27:56.497Z,7.10
2023-03-04T16:30:26.051Z,7.10
2023-03-04T16:32:53.506Z,7.10
2023-03-04T16:35:21.425Z,7.10
2023-03-04T16:37:48.274Z,7.00
2023-03-04T16:40:17.557Z,6.90
2023-03-04T16:42:44.451Z,6.90
2023-03-04T16:45:48.346Z,6.90
2023-03-04T16:51:59.597Z,6.90
2023-03-04T16:54:40.410Z,6.90
2023-03-04T16:57:39.042Z,6.80
2023-03-04T17:00:22.677Z,6.80
2023-03-04T17:03:37.328Z,6.70
2023-03-04T17:06:35.696Z,6.70
2023-03-04T17:19:59.744Z,6.70
2023-03-04T17:22:50.826Z,6.60
2023-03-04T17:25:57.047Z,6.60
2023-03-04T17:28:27.158Z,6.60
2023-03-04T17:31:10.240Z,6.50
2023-03-04T17:34:57.787Z,6.50
2023-03-04T17:38:16.781Z,6.50
2023-03-04T17:41:36.074Z,6.40
2023-03-04T17:44:37.291Z,6.40
2023-03-04T17:50:16.236Z,6.50
2023-03-04T17:52:42.993Z,6.40
2023-03-04T17:55:11.086Z,6.40
2023-03-04T17:57:38.511Z,6.40
2023-03-04T18:00:06.746Z,6.30
2023-03-04T18:02:33.493Z,6.30
2023-03-04T18:05:05.677Z,6.30
2023-03-04T18:07:32.994Z,6.30
2023-03-04T18:09:59.702Z,6.40
2023-03-04T18:12:26.386Z,6.30
2023-03-04T18:14:53.055Z,6.30
2023-03-04T18:17:19.755Z,6.40
2023-03-04T18:19:49.063Z,6.30
2023-03-04T18:22:16.184Z,6.30
2023-03-04T18:24:43.634Z,6.30
2023-03-04T18:27:10.387Z,6.30
2023-03-04T18:29:37.281Z,6.30
2023-03-04T18:32:04.303Z,6.20
2023-03-04T18:34:31.097Z,6.20
2023-03-04T18:36:57.855Z,6.20
2023-03-04T18:39:24.564Z,6.30
2023-03-04T18:41:51.308Z,6.30
2023-03-04T18:44:18.011Z,6.30
2023-03-04T18:46:52.086Z,6.30
2023-03-04T18:49:20.415Z,6.20
2023-03-04T18:51:47.143Z,6.30
2023-03-04T18:54:14.197Z,6.30
2023-03-04T18:56:48.520Z,6.30
2023-03-04T18:59:23.482Z,6.30
2023-03-04T19:01:51.882Z,6.30
2023-03-04T19:04:22.341Z,6.30
2023-03-04T19:06:49.448Z,6.30
2023-03-04T19:09:16.272Z,6.30
2023-03-04T19:11:42.959Z,6.30
2023-03-04T19:14:11.565Z,6.20
2023-03-04T19:16:39.812Z,6.20
2023-03-04T19:19:07.365Z,6.30
2023-03-04T19:21:38.380Z,6.30
2023-03-04T19:24:05.929Z,6.20
2023-03-04T19:26:32.930Z,6.30
2023-03-04T19:28:59.631Z,6.20
2023-03-04T19:31:26.402Z,6.20
2023-03-04T19:33:53.097Z,6.10
2023-03-04T19:36:19.873Z,6.10
2023-03-04T19:38:46.646Z,6.20
2023-03-04T19:41:17.183Z,6.10
2023-03-04T19:43:45.811Z,6.10
2023-03-04T19:46:13.746Z,6.10
2023-03-04T19:48:40.787Z,6.00
2023-03-04T19:51:18.630Z,5.90
2023-03-04T19:53:45.656Z,5.90
2023-03-04T19:56:12.876Z,6.00
2023-03-04T19:58:39.636Z,6.00
2023-03-04T20:01:06.416Z,6.00
2023-03-04T20:03:33.475Z,6.00
2023-03-04T20:06:08.269Z,5.90
2023-03-04T20:08:38.239Z,6.00
2023-03-04T20:11:11.940Z,5.90
2023-03-04T20:13:38.707Z,5.90
2023-03-04T20:16:10.829Z,5.90
2023-03-04T20:18:38.533Z,5.90
2023-03-04T20:21:06.211Z,5.90
2023-03-04T20:23:33.446Z,5.90
2023-03-04T20:26:00.245Z,5.90
2023-03-04T20:28:27.212Z,6.00
2023-03-04T20:30:54.253Z,5.90
2023-03-04T20:33:21.033Z,5.90
2023-03-04T20:35:47.748Z,6.00
2023-03-04T20:38:15.012Z,5.90
2023-03-04T20:40:41.779Z,5.90
2023-03-04T20:43:08.457Z,5.90
2023-03-04T20:45:37.190Z,5.80
2023-03-04T20:48:04.328Z,5.80
2023-03-04T20:50:31.068Z,5.80
2023-03-04T20:52:57.745Z,5.80
2023-03-04T20:55:24.513Z,5.80
2023-03-04T20:57:51.257Z,5.70
2023-03-04T21:00:18.262Z,5.70
2023-03-04T21:02:44.967Z,5.70
2023-03-04T21:05:11.717Z,5.60
2023-03-04T21:07:38.503Z,5.60
2023-03-04T21:10:05.695Z,5.60
2023-03-04T21:12:32.446Z,5.50
2023-03-04T21:14:59.149Z,5.50
2023-03-04T21:17:25.830Z,5.40
2023-03-04T21:19:53.297Z,5.40
2023-03-04T21:22:20.340Z,5.40
2023-03-04T21:24:47.887Z,5.40
2023-03-04T21:27:16.613Z,5.40
2023-03-04T21:29:43.416Z,5.40
2023-03-04T21:32:24.417Z,5.30
2023-03-04T21:34:53.037Z,5.20
2023-03-04T21:37:21.486Z,5.20
2023-03-04T21:39:48.373Z,5.20
2023-03-04T21:42:15.180Z,5.20
2023-03-04T21:44:50.873Z,5.00
2023-03-04T21:47:21.112Z,5.00
2023-03-04T21:49:48.137Z,4.90
2023-03-04T21:52:15.047Z,4.90
2023-03-04T21:54:41.775Z,5.00
2023-03-04T21:57:08.512Z,5.20
2023-03-04T21:59:35.198Z,5.10
2023-03-04T22:02:02.334Z,5.20
2023-03-04T22:04:29.083Z,5.20
2023-03-04T22:06:55.817Z,5.20
2023-03-04T22:09:22.532Z,5.20
2023-03-04T22:11:49.293Z,5.20
2023-03-04T22:14:17.092Z,5.20
2023-03-04T22:16:59.288Z,5.10
2023-03-04T22:19:29.982Z,5.10
2023-03-04T22:21:56.699Z,5.20
2023-03-04T22:24:23.551Z,5.20
2023-03-04T22:26:50.313Z,5.20
2023-03-04T22:29:17.160Z,5.10
2023-03-04T22:31:45.976Z,5.10
2023-03-04T22:34:14.928Z,5.20
2023-03-04T22:36:44.604Z,5.10
2023-03-04T22:39:14.636Z,5.10
2023-03-04T22:41:42.152Z,5.10
2023-03-04T22:44:08.883Z,5.00
2023-03-04T22:46:38.144Z,4.90
2023-03-04T22:49:09.498Z,4.90
2023-03-04T22:51:37.067Z,4.90
2023-03-04T22:54:03.906Z,4.90
2023-03-04T22:56:30.610Z,4.90
2023-03-04T22:58:57.251Z,4.90
2023-03-04T23:01:24.281Z,4.90
2023-03-04T23:03:51.486Z,5.00
2023-03-04T23:06:25.146Z,4.90
2023-03-04T23:08:52.598Z,4.90
2023-03-04T23:11:22.678Z,4.90
2023-03-04T23:13:50.755Z,4.90
2023-03-04T23:16:19.073Z,4.70
2023-03-04T23:18:47.286Z,4.70
2023-03-04T23:21:18.425Z,4.70
2023-03-04T23:23:45.792Z,4.70
2023-03-04T23:26:17.747Z,4.80
2023-03-04T23:28:44.871Z,4.60
2023-03-04T23:31:14.752Z,4.70
2023-03-04T23:33:45.734Z,4.80
2023-03-04T23:36:15.548Z,4.80
2023-03-04T23:38:44.842Z,4.90
2023-03-04T23:41:15.973Z,4.80
2023-03-04T23:43:42.951Z,4.80
2023-03-04T23:46:11.666Z,4.80
2023-03-04T23:48:39.596Z,4.70
2023-03-04T23:51:07.010Z,4.70
2023-03-04T23:53:34.416Z,4.70
2023-03-04T23:56:01.176Z,4.80
2023-03-04T23:58:27.917Z,4.70
